»·PEaware :: ASA1044 KPDX-KSFO

ASA1044 :: KPDX-KSFO

FLIGHT INFORMATION

Flight Status: Arrived
Operator:
Alaska Airlines
More flights by this operator :: More flights under this callsign
Pilot: Anonymous 41672 (41672)
Aircraft: BOEING 737-600
(B736)
More flights by this aircraft type
Origin: KPDX Portland Intl
United States
Destination: KSFO San Francisco Intl
United States
More flights between these airports :: More routes between these airports
Route: MINNE5 FAMUK Q3 FOWND MLBEC BDEGA3
File this flight plan on PilotEdge
Remarks:
Altitude:
(Current/Filed)
39,000ft
Speed:
(Current/Filed)
460kts
Departed: 18-Jun-23 08:05 PM
Arrived: 18-Jun-23 09:33 PM
Distance/Time
Traveled:
478nm/1:28
Distance/Time
To Go:
Arrived

Flight Plot

Page will automatically refresh every two minutes.

Flight plan parsing failed; only flown route is shown


Map Options




Map Legend


Flown Route
Filed Route
Departure Airport
Arrival Airport
Navaid (VOR, NDB)
Fix

Horizontal Profiles

Position Reports

Time Latitude Longitude Heading Altitude Ground
Speed
18-Jun-23 19:26 45.589425 -122.598961 42 38ft 0kts
18-Jun-23 19:27 45.589425 -122.598961 42 38ft 0kts
18-Jun-23 19:28 45.589425 -122.598961 42 38ft 0kts
18-Jun-23 19:29 45.589425 -122.598961 42 38ft 0kts
18-Jun-23 19:30 45.589425 -122.598961 42 38ft 0kts
18-Jun-23 19:31 45.589425 -122.598961 42 38ft 0kts
18-Jun-23 19:32 45.589425 -122.598961 42 38ft 0kts
18-Jun-23 19:33 45.589425 -122.598961 42 38ft 0kts
18-Jun-23 19:34 45.589425 -122.598961 42 38ft 0kts
18-Jun-23 19:35 45.589425 -122.598961 42 38ft 0kts
18-Jun-23 19:36 45.589425 -122.598961 42 38ft 0kts
18-Jun-23 19:37 45.589425 -122.598961 42 38ft 0kts
18-Jun-23 19:38 45.589425 -122.598961 42 38ft 0kts
18-Jun-23 19:39 45.589425 -122.598961 42 38ft 0kts
18-Jun-23 19:40 45.589425 -122.598961 42 38ft 0kts
18-Jun-23 19:41 45.589425 -122.598961 42 38ft 0kts
18-Jun-23 19:42 45.589425 -122.598961 42 38ft 0kts
18-Jun-23 19:43 45.589425 -122.598961 42 38ft 0kts
18-Jun-23 19:44 45.589425 -122.598961 42 38ft 0kts
18-Jun-23 19:45 45.589425 -122.598961 42 38ft 0kts
18-Jun-23 19:46 45.589425 -122.598961 42 38ft 0kts
18-Jun-23 19:47 45.589425 -122.598961 42 38ft 0kts
18-Jun-23 19:48 45.589425 -122.598961 42 38ft 0kts
18-Jun-23 19:49 45.589425 -122.598961 42 38ft 0kts
18-Jun-23 19:50 45.589425 -122.598961 42 38ft 0kts
18-Jun-23 19:51 45.589425 -122.598961 42 38ft 0kts
18-Jun-23 19:52 45.589425 -122.598961 42 38ft 0kts
18-Jun-23 19:53 45.589222 -122.599217 37 37ft 2kts
18-Jun-23 19:55 45.589154 -122.599285 34 39ft 0kts
18-Jun-23 19:56 45.589154 -122.599285 34 39ft 0kts
18-Jun-23 19:57 45.589154 -122.599285 34 38ft 0kts
18-Jun-23 19:58 45.589169 -122.599275 26 38ft 1kts
18-Jun-23 19:59 45.589383 -122.601091 286 38ft 11kts
18-Jun-23 20:00 45.590947 -122.605974 313 37ft 23kts
18-Jun-23 20:01 45.595659 -122.617885 300 36ft 36kts
18-Jun-23 20:02 45.595894 -122.620702 208 39ft 0kts
18-Jun-23 20:03 45.595894 -122.620702 208 39ft 0kts
18-Jun-23 20:04 45.595853 -122.620735 209 36ft 2kts
18-Jun-23 20:05 45.592240 -122.613964 119 36ft 114kts
18-Jun-23 20:06 45.580430 -122.561609 101 3439ft 133kts
18-Jun-23 20:07 45.571377 -122.497737 101 6401ft 172kts
18-Jun-23 20:08 45.559617 -122.426932 106 7837ft 218kts
18-Jun-23 20:09 45.531586 -122.328902 148 9155ft 299kts
18-Jun-23 20:10 45.464850 -122.314870 179 10249ft 203kts
18-Jun-23 20:11 45.414955 -122.357281 247 11613ft 274kts
18-Jun-23 20:12 45.384160 -122.462459 247 12784ft 318kts
18-Jun-23 20:13 45.347012 -122.581044 246 15968ft 334kts
18-Jun-23 20:14 45.307722 -122.703720 246 19023ft 348kts
18-Jun-23 20:15 45.266971 -122.830140 246 21862ft 357kts
18-Jun-23 20:16 45.217758 -122.953492 222 24321ft 375kts
18-Jun-23 20:17 45.113950 -122.995572 195 26690ft 404kts
18-Jun-23 20:18 45.001083 -123.020640 196 28835ft 418kts
18-Jun-23 20:19 44.884074 -123.047722 196 30652ft 432kts
18-Jun-23 20:19 44.784357 -123.070786 197 31900ft 440kts
18-Jun-23 20:21 44.644315 -123.102953 197 34133ft 435kts
18-Jun-23 20:22 44.524857 -123.130355 197 35492ft 435kts
18-Jun-23 20:23 44.401979 -123.134724 186 36754ft 449kts
18-Jun-23 20:24 44.276774 -123.128252 187 37937ft 449kts
18-Jun-23 20:24 44.172917 -123.124423 187 38849ft 448kts
18-Jun-23 20:25 44.048035 -123.120031 187 38985ft 447kts
18-Jun-23 20:26 43.923380 -123.115654 187 38995ft 449kts
18-Jun-23 20:28 43.777411 -123.110553 188 38998ft 451kts
18-Jun-23 20:29 43.651871 -123.106141 188 39000ft 450kts
18-Jun-23 20:30 43.526660 -123.101769 188 39007ft 448kts
18-Jun-23 20:30 43.423075 -123.098182 188 38988ft 447kts
18-Jun-23 20:31 43.298530 -123.093898 188 38989ft 447kts
18-Jun-23 20:32 43.174450 -123.089625 189 38984ft 447kts
18-Jun-23 20:34 43.029296 -123.084669 189 38989ft 448kts
18-Jun-23 20:35 42.904408 -123.080412 189 38979ft 449kts
18-Jun-23 20:35 42.800623 -123.076858 189 38958ft 449kts
18-Jun-23 20:36 42.675872 -123.072645 190 38955ft 449kts
18-Jun-23 20:37 42.550983 -123.068395 190 38947ft 449kts
18-Jun-23 20:38 42.425948 -123.064252 190 38938ft 450kts
18-Jun-23 20:39 42.300601 -123.060204 190 38932ft 451kts
18-Jun-23 20:40 42.175135 -123.056085 190 38923ft 449kts
18-Jun-23 20:41 42.050895 -123.052050 190 38920ft 447kts
18-Jun-23 20:42 41.926302 -123.048037 189 38939ft 449kts
18-Jun-23 20:43 41.801494 -123.043984 189 38931ft 450kts
18-Jun-23 20:44 41.676315 -123.039921 189 38950ft 448kts
18-Jun-23 20:45 41.550693 -123.035953 189 38927ft 453kts
18-Jun-23 20:46 41.424366 -123.031888 188 38944ft 457kts
18-Jun-23 20:47 41.296991 -123.027848 188 38948ft 458kts
18-Jun-23 20:48 41.169584 -123.024031 188 38926ft 457kts
18-Jun-23 20:49 41.042207 -123.020240 187 38927ft 460kts
18-Jun-23 20:50 40.913206 -123.016383 187 38924ft 465kts
18-Jun-23 20:51 40.783196 -123.012455 186 38911ft 468kts
18-Jun-23 20:52 40.654528 -123.008574 186 38902ft 466kts
18-Jun-23 20:53 40.524900 -123.004713 186 38890ft 465kts
18-Jun-23 20:54 40.395449 -123.000882 185 38893ft 465kts
18-Jun-23 20:55 40.266406 -122.997060 185 38892ft 465kts
18-Jun-23 20:56 40.136827 -122.993255 185 38893ft 466kts
18-Jun-23 20:57 40.006823 -122.989442 185 38882ft 468kts
18-Jun-23 20:58 39.876119 -122.985631 184 38892ft 471kts
18-Jun-23 20:59 39.744709 -122.981797 184 38888ft 474kts
18-Jun-23 21:00 39.612802 -122.977955 184 38892ft 474kts
18-Jun-23 21:01 39.480944 -122.974142 183 38872ft 474kts
18-Jun-23 21:02 39.348656 -122.970349 183 37787ft 478kts
18-Jun-23 21:03 39.216031 -122.966506 182 35115ft 477kts
18-Jun-23 21:04 39.085221 -122.962751 182 32946ft 463kts
18-Jun-23 21:05 38.958493 -122.960537 182 30851ft 447kts
18-Jun-23 21:06 38.836790 -122.950260 169 28792ft 434kts
18-Jun-23 21:07 38.721456 -122.913752 169 26811ft 417kts
18-Jun-23 21:08 38.610562 -122.880836 170 24936ft 405kts
18-Jun-23 21:09 38.502560 -122.849054 171 23158ft 387kts
18-Jun-23 21:10 38.395658 -122.817769 170 21565ft 410kts
18-Jun-23 21:11 38.285930 -122.785497 170 19920ft 400kts
18-Jun-23 21:12 38.178523 -122.754179 170 18333ft 393kts
18-Jun-23 21:13 38.074482 -122.723963 170 16719ft 373kts
18-Jun-23 21:14 37.974056 -122.694856 169 15246ft 368kts
18-Jun-23 21:15 37.878920 -122.652931 140 13803ft 365kts
18-Jun-23 21:16 37.803109 -122.571148 141 12291ft 352kts
18-Jun-23 21:17 37.729922 -122.493756 141 11012ft 329kts
18-Jun-23 21:18 37.666134 -122.425842 142 10964ft 272kts
18-Jun-23 21:19 37.610018 -122.367053 146 9713ft 277kts
18-Jun-23 21:20 37.547167 -122.314255 153 8754ft 264kts
18-Jun-23 21:21 37.484207 -122.269069 153 7727ft 258kts
18-Jun-23 21:22 37.422142 -122.224250 153 6639ft 257kts
18-Jun-23 21:23 37.372104 -122.164970 93 5623ft 257kts
18-Jun-23 21:24 37.414215 -122.119477 345 5087ft 211kts
18-Jun-23 21:25 37.470157 -122.135792 334 4074ft 202kts
18-Jun-23 21:26 37.516351 -122.174691 323 3683ft 192kts
18-Jun-23 21:27 37.549843 -122.215773 295 3262ft 149kts
18-Jun-23 21:28 37.569928 -122.258270 294 2784ft 143kts
18-Jun-23 21:29 37.585065 -122.302315 309 1842ft 126kts
18-Jun-23 21:30 37.602449 -122.336481 297 820ft 113kts
18-Jun-23 21:31 37.614663 -122.365527 300 18ft 46kts
18-Jun-23 21:32 37.618204 -122.373879 298 15ft 37kts
18-Jun-23 21:33 37.618943 -122.381263 247 19ft 9kts

Navigation Log

Ident Type
Flight plan parsing failed, navigation log unavailable